Time;durP1;ratioP1;P1;durP2;ratioP2;P2;SDS_P1;SDS_P2;PMS_P1;PMS_P2;Temp;Humidity;BMP_temperature;BMP_pressure;BME280_temperature;BME280_humidity;BME280_pressure;Samples;Min_cycle;Max_cycle;Signal;HPM_P1;HPM_P2
2022/07/02 00:01:06;;;;;;;3.95;3.08;;;11.10;99.90;;;;;;4952208;28;20125;-76
2022/07/02 00:03:36;;;;;;;5.35;2.80;;;11.10;99.90;;;;;;4952010;28;20114;-76
2022/07/02 00:06:03;;;;;;;3.90;2.83;;;11.00;99.90;;;;;;4952068;28;20424;-75
2022/07/02 00:08:29;;;;;;;3.38;2.80;;;11.00;99.90;;;;;;4952022;29;20384;-76
2022/07/02 00:10:56;;;;;;;3.85;2.72;;;11.00;99.90;;;;;;4950167;28;20044;-76
2022/07/02 00:13:24;;;;;;;6.28;3.03;;;10.90;99.90;;;;;;4951995;29;20046;-76
2022/07/02 00:15:50;;;;;;;4.93;2.67;;;10.90;99.90;;;;;;4936165;29;20031;-76
2022/07/02 00:18:16;;;;;;;4.05;2.92;;;10.90;99.90;;;;;;4955912;28;20027;-76
2022/07/02 00:20:45;;;;;;;3.55;2.70;;;10.90;99.90;;;;;;4954156;29;20027;-76
2022/07/02 00:23:11;;;;;;;3.88;2.83;;;10.90;99.90;;;;;;4950134;28;20023;-75
2022/07/02 00:25:43;;;;;;;5.18;3.20;;;10.80;99.90;;;;;;4955664;28;20031;-74
2022/07/02 00:28:15;;;;;;;7.85;2.90;;;10.80;99.90;;;;;;4956556;28;20377;-74
2022/07/02 00:30:45;;;;;;;3.95;2.80;;;10.80;99.90;;;;;;4955696;28;20019;-75
2022/07/02 00:33:13;;;;;;;4.88;3.03;;;10.80;99.90;;;;;;4954872;29;20034;-75
2022/07/02 00:35:40;;;;;;;4.30;3.20;;;10.80;99.90;;;;;;4948408;29;20118;-75
2022/07/02 00:38:07;;;;;;;4.25;2.97;;;10.70;99.90;;;;;;4937842;29;20262;-75
2022/07/02 00:40:34;;;;;;;6.88;2.97;;;10.70;99.90;;;;;;4955283;28;20027;-75
2022/07/02 00:43:00;;;;;;;3.42;2.50;;;10.70;99.90;;;;;;4955354;28;20365;-75
2022/07/02 00:45:26;;;;;;;3.97;3.20;;;10.60;99.90;;;;;;4937621;29;20028;-75
2022/07/02 00:47:55;;;;;;;3.45;2.72;;;10.60;99.90;;;;;;4955089;28;20027;-75
2022/07/02 00:50:22;;;;;;;2.92;2.20;;;10.50;99.90;;;;;;4955066;28;20030;-75
2022/07/02 00:52:47;;;;;;;5.32;2.45;;;10.40;99.90;;;;;;4937956;29;20029;-75
2022/07/02 00:55:13;;;;;;;5.65;2.88;;;10.40;99.90;;;;;;4937257;29;20103;-75
2022/07/02 00:57:39;;;;;;;4.93;3.45;;;10.40;99.90;;;;;;4954718;28;20035;-74
2022/07/02 01:00:07;;;;;;;4.90;2.75;;;10.40;99.90;;;;;;4954967;28;20035;-75
2022/07/02 01:02:35;;;;;;;7.40;2.63;;;10.30;99.90;;;;;;4954708;28;20086;-74
2022/07/02 01:05:01;;;;;;;4.90;2.47;;;10.30;99.90;;;;;;4954269;29;20102;-75
2022/07/02 01:07:28;;;;;;;4.67;2.60;;;10.30;99.90;;;;;;4954715;28;20094;-75
2022/07/02 01:12:42;;;;;;;3.80;3.20;;;10.30;99.90;;;;;;4954835;28;20042;-75
2022/07/02 01:15:08;;;;;;;3.78;2.60;;;10.20;99.90;;;;;;4954443;28;20023;-75
2022/07/02 01:17:34;;;;;;;3.33;2.75;;;10.30;99.90;;;;;;4954664;28;20095;-75
2022/07/02 01:20:02;;;;;;;6.75;2.90;;;10.30;99.90;;;;;;4954242;28;20555;-75
2022/07/02 01:22:46;;;;;;;4.10;3.08;;;10.30;99.90;;;;;;4936547;29;20326;-75
2022/07/02 01:25:12;;;;;;;4.00;2.60;;;10.20;99.90;;;;;;4954015;28;20493;-75
2022/07/02 01:27:37;;;;;;;4.32;2.38;;;10.20;99.90;;;;;;4953715;28;20040;-75
2022/07/02 01:30:03;;;;;;;2.83;2.30;;;10.20;99.90;;;;;;4952875;29;20155;-75
2022/07/02 01:32:29;;;;;;;4.90;2.40;;;10.20;99.90;;;;;;4954024;28;20046;-75
2022/07/02 01:35:08;;;;;;;5.25;2.65;;;10.20;99.90;;;;;;4953949;28;20369;-75
2022/07/02 01:37:36;;;;;;;4.72;3.10;;;10.10;99.90;;;;;;4954073;28;20050;-75
2022/07/02 01:40:02;;;;;;;5.55;3.10;;;10.10;99.90;;;;;;4954144;28;20031;-75
2022/07/02 01:42:28;;;;;;;5.97;3.78;;;10.20;99.90;;;;;;4954002;28;20597;-75
2022/07/02 01:44:54;;;;;;;4.85;3.58;;;10.10;99.90;;;;;;4953972;28;20038;-75
2022/07/02 01:47:20;;;;;;;6.75;3.55;;;10.10;99.90;;;;;;4953855;28;20023;-75
2022/07/02 01:49:46;;;;;;;4.30;3.55;;;10.10;99.90;;;;;;4953635;28;20473;-75
2022/07/02 01:52:14;;;;;;;4.80;3.13;;;10.10;99.90;;;;;;4953998;28;20028;-75
2022/07/02 01:54:39;;;;;;;6.05;3.42;;;10.10;99.90;;;;;;4953608;28;20027;-75
2022/07/02 01:57:05;;;;;;;5.07;4.18;;;10.10;99.90;;;;;;4953902;28;20046;-75
2022/07/02 01:59:32;;;;;;;5.65;3.15;;;10.10;99.90;;;;;;4953817;28;20028;-75
2022/07/02 02:01:58;;;;;;;3.90;2.97;;;10.00;99.90;;;;;;4953939;28;20023;-75
2022/07/02 02:04:23;;;;;;;6.57;3.47;;;10.00;99.90;;;;;;4954025;28;20023;-75
2022/07/02 02:06:50;;;;;;;6.38;3.10;;;9.90;99.90;;;;;;4953624;28;20095;-75
2022/07/02 02:09:16;;;;;;;5.85;2.97;;;9.90;99.90;;;;;;4953876;28;20054;-75
2022/07/02 02:11:41;;;;;;;5.57;3.20;;;9.90;99.90;;;;;;4966894;28;20038;-75
2022/07/02 02:14:07;;;;;;;4.18;3.55;;;9.90;99.90;;;;;;4953683;29;20027;-75
2022/07/02 02:16:32;;;;;;;5.93;3.25;;;9.90;99.90;;;;;;4953308;28;20055;-75
2022/07/02 02:18:59;;;;;;;4.15;3.28;;;9.90;99.90;;;;;;4952906;28;20137;-75
2022/07/02 02:21:27;;;;;;;4.88;3.05;;;9.80;99.90;;;;;;4934788;29;20019;-75
2022/07/02 02:23:54;;;;;;;4.13;3.30;;;9.80;99.90;;;;;;4949167;28;20474;-75
2022/07/02 02:26:19;;;;;;;4.97;2.90;;;9.80;99.90;;;;;;4955018;29;20118;-75
2022/07/02 02:28:45;;;;;;;4.85;3.10;;;9.70;99.90;;;;;;4954143;28;20119;-75
2022/07/02 02:31:10;;;;;;;5.18;3.45;;;9.70;99.90;;;;;;4954243;28;20034;-75
2022/07/02 02:33:36;;;;;;;3.47;2.92;;;9.70;99.90;;;;;;4953718;28;20090;-75
2022/07/02 02:36:02;;;;;;;4.43;2.93;;;9.60;99.90;;;;;;4952885;28;20031;-75
2022/07/02 02:38:28;;;;;;;4.28;2.95;;;9.60;99.90;;;;;;4952288;28;20098;-75
2022/07/02 02:40:53;;;;;;;3.43;2.80;;;9.60;99.90;;;;;;4952669;28;20426;-75
2022/07/02 02:43:19;;;;;;;2.63;2.40;;;9.60;99.90;;;;;;4952833;28;20029;-75
2022/07/02 02:45:44;;;;;;;3.40;2.80;;;9.50;99.90;;;;;;4952825;29;20031;-75
2022/07/02 02:48:10;;;;;;;6.40;2.87;;;9.50;99.90;;;;;;4952603;28;20023;-75
2022/07/02 02:50:35;;;;;;;5.33;2.80;;;9.40;99.90;;;;;;4952739;28;20098;-75
2022/07/02 02:53:01;;;;;;;4.17;2.37;;;9.30;99.90;;;;;;4952562;28;20081;-75
2022/07/02 02:55:28;;;;;;;5.13;2.50;;;9.30;99.90;;;;;;4952748;28;20436;-75
2022/07/02 02:57:53;;;;;;;4.07;2.80;;;9.30;99.90;;;;;;4952729;28;20035;-75
2022/07/02 03:00:19;;;;;;;4.43;2.50;;;9.30;99.90;;;;;;4953028;28;20046;-75
2022/07/02 03:02:45;;;;;;;2.92;2.40;;;9.20;99.90;;;;;;4952979;28;20028;-74
2022/07/02 03:05:10;;;;;;;2.50;2.10;;;9.20;99.90;;;;;;4952742;28;20024;-75
2022/07/02 03:07:36;;;;;;;3.17;2.37;;;9.20;99.90;;;;;;4952692;29;20027;-75
2022/07/02 03:10:01;;;;;;;6.93;1.75;;;9.20;99.90;;;;;;4952712;28;20162;-75
2022/07/02 03:12:27;;;;;;;5.23;1.70;;;9.20;99.90;;;;;;4952432;28;20133;-75
2022/07/02 03:14:53;;;;;;;2.90;1.90;;;9.20;99.90;;;;;;4952522;28;20031;-75
2022/07/02 03:17:18;;;;;;;4.33;2.83;;;9.10;99.90;;;;;;4952753;29;20035;-75
2022/07/02 03:19:45;;;;;;;4.30;2.67;;;9.20;99.90;;;;;;4952245;28;20089;-75
2022/07/02 03:22:11;;;;;;;5.53;2.97;;;9.20;99.90;;;;;;4948769;28;20090;-75
2022/07/02 03:24:36;;;;;;;3.80;2.50;;;9.20;99.90;;;;;;4950025;28;20051;-75
2022/07/02 03:27:02;;;;;;;3.23;2.30;;;9.10;99.90;;;;;;4952147;29;20494;-75
2022/07/02 03:29:27;;;;;;;4.80;2.60;;;9.20;99.90;;;;;;4952287;29;20388;-75
2022/07/02 03:31:53;;;;;;;3.20;2.13;;;9.20;99.90;;;;;;4952338;29;20023;-75
2022/07/02 03:34:18;;;;;;;3.67;2.17;;;9.20;99.90;;;;;;4951921;28;20027;-75
2022/07/02 03:36:44;;;;;;;3.83;2.27;;;9.20;99.90;;;;;;4952365;28;20030;-75
2022/07/02 03:39:10;;;;;;;3.27;2.53;;;9.10;99.90;;;;;;4952185;28;20066;-75
2022/07/02 03:41:35;;;;;;;3.40;2.40;;;9.20;99.90;;;;;;4950854;29;20027;-75
2022/07/02 03:44:01;;;;;;;4.73;2.47;;;9.20;99.90;;;;;;4951941;28;20027;-75
2022/07/02 03:46:26;;;;;;;13.33;3.60;;;9.20;99.90;;;;;;4951913;28;20035;-75
2022/07/02 03:48:52;;;;;;;9.23;3.40;;;9.10;99.90;;;;;;4952484;28;20034;-74
2022/07/02 03:51:17;;;;;;;18.37;3.13;;;9.20;99.90;;;;;;4934948;29;20027;-75
2022/07/02 03:53:43;;;;;;;17.33;3.30;;;9.10;99.90;;;;;;4951824;28;20022;-75
2022/07/02 03:56:08;;;;;;;23.27;3.93;;;9.10;99.90;;;;;;4952107;28;20102;-75
2022/07/02 03:58:34;;;;;;;12.97;3.50;;;9.10;99.90;;;;;;4952381;28;20031;-74
2022/07/02 04:00:59;;;;;;;20.93;3.73;;;9.20;99.90;;;;;;4958342;28;20079;-81
2022/07/02 04:03:25;;;;;;;7.83;4.20;;;9.10;99.90;;;;;;4952157;28;20037;-75
2022/07/02 04:05:50;;;;;;;5.13;3.47;;;9.10;99.90;;;;;;4952265;29;20055;-75
2022/07/02 04:08:16;;;;;;;4.63;3.87;;;9.20;99.90;;;;;;4950793;28;20032;-75
2022/07/02 04:10:42;;;;;;;6.77;4.40;;;9.20;99.90;;;;;;4951853;29;20035;-76
2022/07/02 04:13:08;;;;;;;7.53;4.50;;;9.30;99.90;;;;;;4953746;29;20468;-75
2022/07/02 04:15:34;;;;;;;4.73;3.30;;;9.30;99.90;;;;;;4954800;29;20031;-73
2022/07/02 04:18:10;;;;;;;10.20;3.30;;;9.40;99.90;;;;;;4954774;29;20031;-73
2022/07/02 04:20:36;;;;;;;22.60;3.63;;;9.40;99.90;;;;;;4954680;29;20065;-73
2022/07/02 04:23:02;;;;;;;45.27;4.30;;;9.40;99.90;;;;;;4954793;29;20463;-73
2022/07/02 04:25:28;;;;;;;26.87;4.40;;;9.50;99.90;;;;;;4954846;29;20032;-73
2022/07/02 04:27:54;;;;;;;18.03;4.03;;;9.50;99.90;;;;;;4953512;28;20051;-75
2022/07/02 04:30:19;;;;;;;14.67;4.37;;;9.50;99.90;;;;;;4954246;29;20038;-79
2022/07/02 04:32:45;;;;;;;8.20;4.13;;;9.50;99.90;;;;;;4937906;29;20035;-73
2022/07/02 04:35:11;;;;;;;7.47;4.07;;;9.60;99.90;;;;;;4937689;29;20437;-72
2022/07/02 04:37:36;;;;;;;4.17;3.50;;;9.60;99.90;;;;;;4954932;29;20033;-72
2022/07/02 04:40:02;;;;;;;4.03;3.43;;;9.60;99.90;;;;;;4954951;29;20039;-72
2022/07/02 04:42:28;;;;;;;6.38;3.47;;;9.60;99.90;;;;;;4954597;29;20031;-72
2022/07/02 04:44:53;;;;;;;5.28;3.85;;;9.70;99.90;;;;;;4954763;29;20030;-75
2022/07/02 04:47:19;;;;;;;4.70;3.83;;;9.80;99.90;;;;;;4954807;29;20024;-73
2022/07/02 04:49:44;;;;;;;5.68;3.83;;;9.90;99.90;;;;;;4954965;29;20036;-73
2022/07/02 04:52:10;;;;;;;5.97;4.10;;;10.00;99.90;;;;;;4953037;28;20034;-73
2022/07/02 04:54:35;;;;;;;5.00;4.50;;;10.10;99.90;;;;;;4951613;29;20058;-72
2022/07/02 04:57:01;;;;;;;6.65;4.60;;;10.20;99.90;;;;;;4951343;29;20034;-70
2022/07/02 04:59:26;;;;;;;9.65;5.53;;;10.30;99.90;;;;;;4951361;29;20035;-77
2022/07/02 05:01:52;;;;;;;9.45;5.07;;;10.40;99.90;;;;;;4954664;28;20090;-73
2022/07/02 05:04:18;;;;;;;8.05;5.45;;;10.50;99.90;;;;;;4957993;29;20035;-72
2022/07/02 05:06:43;;;;;;;7.22;5.13;;;10.60;99.90;;;;;;4956894;28;20027;-76
2022/07/02 05:09:09;;;;;;;8.90;4.65;;;10.70;99.90;;;;;;4954456;29;20031;-74
2022/07/02 05:11:35;;;;;;;6.10;4.70;;;10.90;99.90;;;;;;4954483;28;20476;-74
2022/07/02 05:14:01;;;;;;;6.57;4.70;;;10.90;99.90;;;;;;4954201;28;20031;-74
2022/07/02 05:16:26;;;;;;;10.30;5.90;;;11.10;99.90;;;;;;4954272;29;20035;-74
2022/07/02 05:18:52;;;;;;;6.47;5.70;;;11.10;99.90;;;;;;4953343;29;20057;-74
2022/07/02 05:21:17;;;;;;;5.78;5.18;;;11.20;99.90;;;;;;4953968;28;20058;-74
2022/07/02 05:23:43;;;;;;;5.78;5.10;;;11.30;99.90;;;;;;4951279;29;20119;-74
2022/07/02 05:26:08;;;;;;;6.97;5.40;;;11.40;99.90;;;;;;4954260;29;20071;-74
2022/07/02 05:28:34;;;;;;;8.95;6.00;;;11.50;99.90;;;;;;4954431;29;20102;-74
2022/07/02 05:31:00;;;;;;;6.75;6.00;;;11.60;99.90;;;;;;4954314;29;20461;-74
2022/07/02 05:33:25;;;;;;;5.88;5.28;;;11.70;99.90;;;;;;4954228;28;20061;-74
2022/07/02 05:35:51;;;;;;;8.98;5.88;;;11.90;99.90;;;;;;4954768;28;20035;-74
2022/07/02 05:38:17;;;;;;;6.10;5.50;;;12.10;99.90;;;;;;4954184;28;20042;-74
2022/07/02 05:40:43;;;;;;;9.43;5.57;;;12.20;99.90;;;;;;4954139;29;20113;-74
2022/07/02 05:43:09;;;;;;;5.18;4.68;;;12.40;99.90;;;;;;4953721;29;20035;-74
2022/07/02 05:45:34;;;;;;;6.30;4.55;;;12.50;99.90;;;;;;4954099;29;20429;-74
2022/07/02 05:48:00;;;;;;;5.78;5.13;;;12.70;99.90;;;;;;4953912;29;20086;-74
2022/07/02 05:50:25;;;;;;;5.70;4.47;;;12.90;99.90;;;;;;4953987;29;20047;-74
2022/07/02 05:52:51;;;;;;;7.43;4.60;;;13.10;99.90;;;;;;4953628;29;20115;-74
2022/07/02 05:55:17;;;;;;;7.47;3.75;;;13.30;99.90;;;;;;4953859;29;20035;-74
2022/07/02 05:57:42;;;;;;;6.45;3.67;;;13.40;99.90;;;;;;4953764;29;20102;-74
2022/07/02 06:00:10;;;;;;;3.30;2.83;;;13.60;99.90;;;;;;4953791;29;20035;-74
2022/07/02 06:02:36;;;;;;;2.85;2.50;;;13.80;99.90;;;;;;4953857;28;20042;-74
2022/07/02 06:07:46;;;;;;;4.53;2.38;;;14.10;99.90;;;;;;4947787;29;20065;-74
2022/07/02 06:10:18;;;;;;;2.78;2.00;;;14.30;99.90;;;;;;4953691;28;20050;-74
2022/07/02 06:12:48;;;;;;;1.92;1.35;;;14.40;99.90;;;;;;4945034;28;20126;-75
2022/07/02 06:15:15;;;;;;;1.02;0.95;;;14.60;99.90;;;;;;4953072;29;20023;-75
2022/07/02 06:17:40;;;;;;;1.33;1.13;;;14.70;99.90;;;;;;4953985;28;20050;-75
2022/07/02 06:20:06;;;;;;;4.25;1.13;;;14.80;99.90;;;;;;4954908;28;20035;-75
2022/07/02 06:22:32;;;;;;;2.33;1.20;;;14.90;99.90;;;;;;4947820;29;20393;-75
2022/07/02 06:24:57;;;;;;;2.47;1.05;;;15.00;99.90;;;;;;4950437;29;20032;-73
2022/07/02 06:27:23;;;;;;;3.72;1.20;;;15.10;99.90;;;;;;4947005;29;20043;-74
2022/07/02 06:29:49;;;;;;;1.38;1.27;;;15.20;99.90;;;;;;4951199;29;20027;-74
2022/07/02 06:32:16;;;;;;;2.03;1.30;;;15.30;99.90;;;;;;4935238;29;20138;-74
2022/07/02 06:34:42;;;;;;;1.50;1.10;;;15.30;99.90;;;;;;4953047;29;20396;-73
2022/07/02 06:37:08;;;;;;;3.80;1.27;;;15.40;99.90;;;;;;4952147;29;20031;-73
2022/07/02 06:39:33;;;;;;;3.55;1.30;;;15.50;99.90;;;;;;4951379;28;20042;-74
2022/07/02 06:44:43;;;;;;;2.45;1.05;;;15.70;99.90;;;;;;4949779;29;20034;-74
2022/07/02 06:47:09;;;;;;;2.47;1.30;;;15.80;99.90;;;;;;4950369;28;20027;-74
2022/07/02 06:49:34;;;;;;;1.38;1.27;;;15.90;99.90;;;;;;4949684;29;20027;-74
2022/07/02 06:52:00;;;;;;;3.63;1.60;;;16.00;99.90;;;;;;4950007;28;20031;-74
2022/07/02 06:54:25;;;;;;;3.10;1.10;;;16.10;99.90;;;;;;4949402;29;20031;-74
2022/07/02 06:56:51;;;;;;;2.17;1.17;;;16.30;99.90;;;;;;4950293;28;20030;-73
2022/07/02 06:59:17;;;;;;;1.35;1.20;;;16.40;99.90;;;;;;4950107;29;20114;-73
2022/07/02 07:01:42;;;;;;;3.15;1.10;;;16.40;99.90;;;;;;4932014;29;20030;-74
2022/07/02 07:04:08;;;;;;;1.58;1.05;;;16.40;99.90;;;;;;4949622;29;20031;-75
2022/07/02 07:06:37;;;;;;;3.50;2.22;;;16.40;99.90;;;;;;4950756;28;20026;-75
2022/07/02 07:09:03;;;;;;;2.00;1.23;;;16.40;99.90;;;;;;4950690;28;20034;-75
2022/07/02 07:11:28;;;;;;;3.00;1.10;;;16.50;99.90;;;;;;4950742;28;20031;-75
2022/07/02 07:13:54;;;;;;;1.52;0.90;;;16.50;99.90;;;;;;4950564;28;20027;-75
2022/07/02 07:16:19;;;;;;;1.20;1.08;;;16.50;99.90;;;;;;4950195;28;20873;-74
2022/07/02 07:18:48;;;;;;;5.68;1.10;;;16.50;99.90;;;;;;4950026;28;20139;-75
2022/07/02 07:21:14;;;;;;;2.47;0.93;;;16.60;99.90;;;;;;4949893;29;20031;-74
2022/07/02 07:23:40;;;;;;;1.35;1.00;;;16.60;99.90;;;;;;4943774;29;20035;-75
2022/07/02 07:26:05;;;;;;;1.48;1.08;;;16.70;99.90;;;;;;4949134;28;20113;-75
2022/07/02 07:28:31;;;;;;;1.23;0.90;;;16.80;99.90;;;;;;4951166;28;20090;-75
2022/07/02 07:30:56;;;;;;;2.90;1.20;;;16.90;99.90;;;;;;4951137;28;20090;-75
2022/07/02 07:33:22;;;;;;;1.80;1.10;;;17.00;99.90;;;;;;4951653;28;20396;-75
2022/07/02 07:35:48;;;;;;;2.20;1.10;;;17.00;99.90;;;;;;4950221;28;20121;-75
2022/07/02 07:38:13;;;;;;;3.80;1.27;;;17.00;99.90;;;;;;4949761;28;20114;-75
2022/07/02 07:40:39;;;;;;;2.35;1.20;;;17.20;99.90;;;;;;4949171;28;20532;-75
2022/07/02 07:43:04;;;;;;;5.05;1.58;;;17.20;99.90;;;;;;4949294;28;20023;-75
2022/07/02 07:45:30;;;;;;;2.55;1.20;;;17.30;99.90;;;;;;4949280;28;20571;-75
2022/07/02 07:47:56;;;;;;;6.13;1.40;;;17.40;99.90;;;;;;4948029;29;20487;-75
2022/07/02 07:50:22;;;;;;;1.52;1.10;;;17.50;99.90;;;;;;4948891;28;20042;-75
2022/07/02 07:52:47;;;;;;;1.50;0.98;;;17.60;99.90;;;;;;4948889;29;20039;-75
2022/07/02 07:55:13;;;;;;;1.40;0.90;;;17.70;99.90;;;;;;4949033;29;20520;-75
2022/07/02 07:57:39;;;;;;;3.92;1.10;;;17.80;99.90;;;;;;4954983;28;20027;-75
2022/07/02 08:00:05;;;;;;;1.98;0.82;;;17.90;99.90;;;;;;4950922;29;20475;-75
2022/07/02 08:02:31;;;;;;;1.55;0.80;;;17.80;99.90;;;;;;4954543;29;20166;-76
2022/07/02 08:04:57;;;;;;;2.80;0.80;;;17.90;99.90;;;;;;4956828;28;20132;-73
2022/07/02 08:07:23;;;;;;;2.75;0.75;;;18.00;99.90;;;;;;4964326;28;20027;-73
2022/07/02 08:09:53;;;;;;;1.90;0.90;;;18.00;99.90;;;;;;4953661;28;20075;-74
2022/07/02 08:12:23;;;;;;;1.10;0.93;;;18.10;99.90;;;;;;4943733;29;20028;-74
2022/07/02 08:14:49;;;;;;;1.13;0.80;;;18.10;99.90;;;;;;4941042;29;20473;-75
2022/07/02 08:17:15;;;;;;;0.70;0.65;;;18.10;99.90;;;;;;4957765;28;20106;-75
2022/07/02 08:19:41;;;;;;;1.50;0.98;;;18.10;99.90;;;;;;4963486;28;20030;-75
2022/07/02 08:22:06;;;;;;;1.67;1.00;;;18.20;99.90;;;;;;4957680;28;20038;-76
2022/07/02 08:24:32;;;;;;;3.28;1.00;;;18.20;99.90;;;;;;4935537;29;20043;-75
2022/07/02 08:26:57;;;;;;;2.13;0.90;;;18.20;99.90;;;;;;4948104;29;20109;-75
2022/07/02 08:29:23;;;;;;;1.83;1.10;;;18.30;99.90;;;;;;4973497;28;20066;-75
2022/07/02 08:31:48;;;;;;;0.93;0.70;;;18.40;99.90;;;;;;4962957;28;20094;-74
2022/07/02 08:34:14;;;;;;;1.50;1.00;;;18.50;99.90;;;;;;4954453;29;20035;-75
2022/07/02 08:36:40;;;;;;;1.17;0.90;;;18.50;99.90;;;;;;4964628;28;20030;-75
2022/07/02 08:39:05;;;;;;;2.25;1.10;;;18.50;99.90;;;;;;4976619;28;20035;-75
2022/07/02 08:41:32;;;;;;;6.03;3.53;;;18.60;99.90;;;;;;4965011;28;20035;-75
2022/07/02 08:44:01;;;;;;;3.38;0.90;;;18.70;99.90;;;;;;4977620;28;20452;-75
2022/07/02 08:46:28;;;;;;;3.38;0.80;;;18.70;99.90;;;;;;4963595;28;20070;-76
2022/07/02 08:48:55;;;;;;;1.17;0.90;;;18.80;99.90;;;;;;4977532;28;20027;-75
2022/07/02 08:51:21;;;;;;;1.58;0.80;;;18.80;99.90;;;;;;4960092;28;20031;-75
2022/07/02 08:53:47;;;;;;;0.88;0.80;;;18.80;99.90;;;;;;4957867;29;20042;-75
2022/07/02 08:56:13;;;;;;;3.53;0.95;;;18.90;99.90;;;;;;4959819;28;20039;-75
2022/07/02 08:58:39;;;;;;;1.27;0.80;;;19.00;99.90;;;;;;4969067;28;20094;-75
2022/07/02 09:01:08;;;;;;;5.32;0.90;;;19.00;99.90;;;;;;4958074;28;20057;-75
2022/07/02 09:03:34;;;;;;;0.60;0.60;;;19.10;99.90;;;;;;4977279;28;20031;-75
2022/07/02 09:06:01;;;;;;;0.73;0.70;;;19.20;99.90;;;;;;4964949;28;20028;-75
2022/07/02 09:08:29;;;;;;;1.85;0.60;;;19.30;99.90;;;;;;4958050;29;20388;-75
2022/07/02 09:10:56;;;;;;;0.82;0.73;;;19.30;99.90;;;;;;4958026;29;20145;-74
2022/07/02 09:13:22;;;;;;;1.00;0.80;;;19.40;99.90;;;;;;4957879;29;20436;-75
2022/07/02 09:15:49;;;;;;;4.32;1.02;;;19.50;99.90;;;;;;4957673;29;20114;-75
2022/07/02 09:18:14;;;;;;;2.15;0.70;;;19.40;99.90;;;;;;4957834;29;20555;-75
2022/07/02 09:20:40;;;;;;;0.85;0.70;;;19.40;99.90;;;;;;4957848;28;20035;-75
2022/07/02 09:23:10;;;;;;;1.67;1.10;;;19.40;99.90;;;;;;4957970;29;20027;-75
2022/07/02 09:25:35;;;;;;;2.88;0.57;;;19.40;99.90;;;;;;4957715;29;20377;-75
2022/07/02 09:28:03;;;;;;;1.02;0.75;;;19.50;99.90;;;;;;4957227;28;20055;-75
2022/07/02 09:30:36;;;;;;;2.10;0.73;;;19.60;99.90;;;;;;4971138;28;20058;-75
2022/07/02 09:35:46;;;;;;;3.72;1.00;;;20.00;99.90;;;;;;4943825;29;20463;-75
2022/07/02 09:38:12;;;;;;;4.88;1.48;;;20.20;99.90;;;;;;4956085;29;20039;-75
2022/07/02 09:40:50;;;;;;;4.00;1.10;;;20.40;99.90;;;;;;4957306;28;20036;-75
2022/07/02 09:43:27;;;;;;;1.58;1.20;;;20.60;99.90;;;;;;4964565;28;20077;-75
2022/07/02 09:45:53;;;;;;;1.85;0.93;;;20.90;99.90;;;;;;4975717;28;20423;-75
2022/07/02 09:48:19;;;;;;;2.80;1.30;;;21.10;99.90;;;;;;4939729;29;20027;-75
2022/07/02 09:50:44;;;;;;;1.67;1.00;;;21.50;99.90;;;;;;4956872;28;20157;-75
2022/07/02 09:53:12;;;;;;;3.50;1.65;;;21.80;99.90;;;;;;4970583;28;20027;-75
2022/07/02 09:55:38;;;;;;;1.50;1.20;;;21.80;99.90;;;;;;4957268;28;20468;-75
2022/07/02 09:58:04;;;;;;;3.10;1.52;;;21.90;99.90;;;;;;4956881;29;20075;-76
2022/07/02 10:00:33;;;;;;;4.05;1.50;;;21.90;99.90;;;;;;4956839;28;20031;-75
2022/07/02 10:03:00;;;;;;;2.45;1.45;;;22.00;99.90;;;;;;4948087;28;20482;-75
2022/07/02 10:05:33;;;;;;;1.92;1.40;;;22.30;99.90;;;;;;4944048;29;20038;-76
2022/07/02 10:08:02;;;;;;;4.55;1.80;;;22.60;99.90;;;;;;4957010;29;20488;-76
2022/07/02 10:10:38;;;;;;;3.65;1.92;;;22.70;99.90;;;;;;4956765;28;20046;-75
2022/07/02 10:13:08;;;;;;;2.65;1.67;;;23.00;99.90;;;;;;4957101;29;20027;-76
2022/07/02 10:15:38;;;;;;;3.90;2.50;;;23.30;99.90;;;;;;4953144;28;20031;-75
2022/07/02 10:18:05;;;;;;;2.28;1.88;;;23.20;99.90;;;;;;4968824;28;20027;-76
2022/07/02 10:20:32;;;;;;;2.00;1.50;;;23.50;99.90;;;;;;4969875;28;20468;-75
2022/07/02 10:23:01;;;;;;;4.15;2.40;;;23.60;99.90;;;;;;4939304;29;20062;-76
2022/07/02 10:25:27;;;;;;;3.60;2.50;;;23.70;99.90;;;;;;4956377;29;20046;-76
2022/07/02 10:27:55;;;;;;;2.70;2.22;;;23.70;99.90;;;;;;4959109;28;20042;-76
2022/07/02 10:30:24;;;;;;;2.47;2.00;;;23.80;99.90;;;;;;4956915;29;20102;-76
2022/07/02 10:33:16;;;;;;;4.90;2.38;;;23.80;99.90;;;;;;4973478;28;20057;-76
2022/07/02 10:35:43;;;;;;;4.53;2.05;;;23.70;99.90;;;;;;4962842;28;20380;-76
2022/07/02 10:38:08;;;;;;;4.03;2.28;;;23.70;99.90;;;;;;4963241;28;20029;-76
2022/07/02 10:40:45;;;;;;;2.75;1.75;;;23.60;99.90;;;;;;4975394;28;20027;-76
2022/07/02 10:43:18;;;;;;;3.33;1.50;;;23.50;99.90;;;;;;4956838;28;20024;-76
2022/07/02 10:45:44;;;;;;;2.40;1.70;;;23.70;99.90;;;;;;4955995;28;20023;-76
2022/07/02 10:48:12;;;;;;;3.83;2.03;;;23.70;99.90;;;;;;4969726;28;20062;-76
2022/07/02 10:50:38;;;;;;;1.90;1.40;;;23.70;99.90;;;;;;4955597;29;20094;-76
2022/07/02 10:53:10;;;;;;;3.72;1.25;;;23.60;99.90;;;;;;4955858;29;20107;-76
2022/07/02 10:55:36;;;;;;;1.88;1.38;;;23.70;99.90;;;;;;4955619;29;20466;-75
2022/07/02 10:58:04;;;;;;;2.05;1.52;;;23.60;99.90;;;;;;4957004;28;20318;-76
2022/07/02 11:00:36;;;;;;;2.75;1.35;;;23.60;99.90;;;;;;4954978;28;20434;-76
2022/07/02 11:03:15;;;;;;;2.67;1.50;;;23.50;99.90;;;;;;4969597;28;20031;-76
2022/07/02 11:06:02;;;;;;;2.83;1.30;;;23.70;99.90;;;;;;4975143;28;20015;-76
2022/07/02 11:09:12;;;;;;;1.33;1.10;;;23.80;99.90;;;;;;4941269;29;20464;-76
2022/07/02 11:11:40;;;;;;;2.25;1.17;;;24.00;99.90;;;;;;4946788;29;20039;-76
2022/07/02 11:14:07;;;;;;;1.65;0.90;;;24.20;99.90;;;;;;4955683;28;20027;-76
2022/07/02 11:16:37;;;;;;;1.85;1.10;;;24.30;99.90;;;;;;4955492;29;20023;-76
2022/07/02 11:19:04;;;;;;;2.00;1.00;;;24.50;99.90;;;;;;4955435;29;20082;-76
2022/07/02 11:21:30;;;;;;;1.77;0.98;;;24.70;99.90;;;;;;4955257;28;20094;-75
2022/07/02 11:23:56;;;;;;;2.72;1.00;;;24.70;99.90;;;;;;4954123;28;20114;-76
2022/07/02 11:26:27;;;;;;;1.50;0.90;;;25.00;99.90;;;;;;4974646;28;20094;-76
2022/07/02 11:28:53;;;;;;;1.65;0.90;;;25.10;99.90;;;;;;4960034;28;20085;-76
2022/07/02 11:31:22;;;;;;;1.67;0.70;;;25.30;99.90;;;;;;4955206;28;20035;-76
2022/07/02 11:33:53;;;;;;;2.03;1.10;;;25.40;99.90;;;;;;4955210;29;20548;-76
2022/07/02 11:36:19;;;;;;;2.92;0.80;;;25.50;99.90;;;;;;4961784;28;20073;-76
2022/07/02 11:38:46;;;;;;;3.65;0.95;;;25.70;99.90;;;;;;4974153;28;20415;-76
2022/07/02 11:41:32;;;;;;;2.42;0.80;;;25.70;99.90;;;;;;4960527;28;20034;-77
2022/07/02 11:43:59;;;;;;;3.85;1.00;;;25.70;99.90;;;;;;4974401;28;20070;-76
2022/07/02 11:46:27;;;;;;;1.48;0.85;;;25.90;99.90;;;;;;4955086;28;20038;-76
2022/07/02 11:48:55;;;;;;;2.38;0.95;;;26.20;99.90;;;;;;4937649;29;20023;-76
2022/07/02 11:51:21;;;;;;;0.90;0.75;;;26.30;99.90;;;;;;4954802;28;20399;-76
2022/07/02 11:53:57;;;;;;;4.43;0.85;;;26.40;99.90;;;;;;4964492;28;20031;-76
2022/07/02 11:56:23;;;;;;;2.72;1.00;;;26.60;99.90;;;;;;4943084;28;20105;-76
2022/07/02 11:58:48;;;;;;;3.03;0.77;;;26.80;99.90;;;;;;4973932;28;20106;-76
2022/07/02 12:01:23;;;;;;;0.90;0.70;;;26.80;99.90;;;;;;4973759;28;20463;-75
2022/07/02 12:03:51;;;;;;;2.40;0.60;;;26.80;99.30;;;;;;4961128;28;20032;-76
2022/07/02 12:06:17;;;;;;;2.17;0.90;;;27.00;98.30;;;;;;4963575;28;20110;-76
2022/07/02 12:08:43;;;;;;;1.30;0.60;;;27.00;98.60;;;;;;4954391;29;20457;-76
2022/07/02 12:11:16;;;;;;;0.95;0.73;;;27.10;99.10;;;;;;4969270;28;20109;-76
2022/07/02 12:13:43;;;;;;;3.42;1.90;;;27.00;97.30;;;;;;4978006;28;20113;-76
2022/07/02 12:16:14;;;;;;;2.53;0.90;;;26.80;98.00;;;;;;4977806;28;20507;-77
2022/07/02 12:18:40;;;;;;;1.10;0.47;;;27.00;96.30;;;;;;4977739;28;20033;-76
2022/07/02 12:21:16;;;;;;;1.05;0.75;;;27.30;94.70;;;;;;4977490;28;20096;-76
2022/07/02 12:23:49;;;;;;;0.70;0.70;;;27.20;94.20;;;;;;4972856;28;20526;-69
2022/07/02 12:26:24;;;;;;;4.20;1.75;;;27.30;92.30;;;;;;4954080;28;20130;-73
2022/07/02 12:32:03;;;;;;;1.08;0.60;;;27.40;91.00;;;;;;4976200;28;20563;-68
2022/07/02 12:34:37;;;;;;;1.25;0.80;;;27.10;91.20;;;;;;4957726;28;20035;-68
2022/07/02 12:37:03;;;;;;;1.00;0.85;;;26.70;92.70;;;;;;4957197;29;20099;-69
2022/07/02 12:39:43;;;;;;;2.22;0.80;;;27.10;92.70;;;;;;4956984;28;20031;-68
2022/07/02 12:42:21;;;;;;;2.00;0.82;;;27.30;92.30;;;;;;4946970;29;20023;-69
2022/07/02 12:44:54;;;;;;;2.30;0.80;;;27.60;90.70;;;;;;4956034;28;20714;-69
2022/07/02 12:47:28;;;;;;;0.95;0.75;;;27.40;91.90;;;;;;4963196;28;20028;-69
2022/07/02 12:50:06;;;;;;;2.45;0.80;;;27.60;91.20;;;;;;4953339;29;20035;-69
2022/07/02 12:52:44;;;;;;;1.92;0.82;;;27.80;89.40;;;;;;4955640;29;20380;-69
2022/07/02 12:55:30;;;;;;;1.10;0.80;;;27.90;87.40;;;;;;4955215;29;20023;-69
2022/07/02 12:58:02;;;;;;;2.55;0.70;;;27.60;88.70;;;;;;4952441;28;20031;-69
2022/07/02 13:00:30;;;;;;;2.08;0.60;;;27.90;88.00;;;;;;4955340;29;20477;-69
2022/07/02 13:03:01;;;;;;;1.40;0.70;;;27.80;87.90;;;;;;4954474;29;20038;-68